• Join FlightAware (Why Join?)
  • Login
  • US Flag 
12:15AM EDT


 

Airport Tracker/Info


-or-


 

Live Flight TrackerFlight Track Log ✈ ASQ5941 ✈ 05-Sep-2013 ✈ KAVP - KORD

Flight Track Log - Related Links

Times and Time Zones

All times are in EDT time to prevent confusion due to time zone crossing. See the ASQ5941 flight status page for this flight to view local times or setup timezone preferences in your user account.

Time Position Orientation Groundspeed Altitude Reporting Facility
EDT Latitude Longitude Course Direction KTS MPH feet Rate Location/Type
05:13PM 41.4750 -75.6578 359° North 224 258 6,900  Level New York Center
05:14PM 41.5247 -75.7142 320° Northwest 206 237 9,600 2,040 Climbing New York Center
05:15PM 41.4773 -76.0308 315° West  Level FlightAware Approximate
05:15PM 41.5631 -75.7947 302° West 229 264 11,000  Level New York Center
05:16PM 41.5345 -76.1100 312° West  Level FlightAware Approximate
05:16PM 41.5922 -75.8939 291° West 288 331 12,000  Level New York Center
05:17PM 41.5888 -76.1929 307° West  Level FlightAware Approximate
05:17PM 41.6228 -76.0044 290° West 319 367 13,600  Level New York Center
05:18PM 41.6389 -76.2805 307° West  Level FlightAware Approximate
05:18PM 41.6569 -76.1239 291° West 327 376 16,000  Level New York Center
05:19PM 41.6875 -76.2289 291° West 315 362 17,500 1,260 Climbing New York Center
05:20PM 41.7178 -76.3397 290° West 309 356 18,600 1,080 Climbing New York Center
05:21PM 41.7500 -76.4539 291° West 316 364 19,700 1,020 Climbing New York Center
05:22PM 41.7817 -76.5706 290° West 326 375 20,700 1,080 Climbing New York Center
05:23PM 41.8150 -76.6958 290° West 341 392 21,900 1,500 Climbing New York Center
05:26PM 41.8975 -76.9897 291° West 356 410 26,100 1,560 Climbing Cleveland Center
05:27PM 41.9281 -77.0997 291° West 331 381 27,500 1,320 Climbing Cleveland Center
05:28PM 41.9583 -77.2072 291° West 320 368 28,800 1,320 Climbing Cleveland Center
05:29PM 41.9886 -77.3172 290° West 320 368 30,200 1,500 Climbing Cleveland Center
05:30PM 42.0144 -77.4222 288° West 320 368 31,800 1,620 Climbing Cleveland Center
05:31PM 42.0425 -77.5269 290° West 310 357 33,500 1,440 Climbing Cleveland Center
05:32PM 42.0700 -77.6319 289° West 299 344 34,700 1,080 Climbing Cleveland Center
05:33PM 42.0956 -77.7317 289° West 299 344 35,700 600 Climbing Cleveland Center
05:34PM 42.1253 -77.8394 290° West 299 344 36,000 120 Climbing Cleveland Center
05:35PM 42.1550 -77.9558 289° West 310 357 36,000  Level Cleveland Center
05:36PM 42.1869 -78.0778 290° West 334 384 36,000  Level Cleveland Center
05:37PM 42.2231 -78.2083 291° West 356 410 36,000  Level Cleveland Center
05:38PM 42.2569 -78.3389 289° West 362 417 36,000  Level Cleveland Center
05:39PM 42.2889 -78.4725 288° West 367 422 36,000  Level Cleveland Center
05:40PM 42.3222 -78.6033 289° West 367 422 36,000  Level Cleveland Center
05:41PM 42.3558 -78.7344 289° West 367 422 36,000  Level Cleveland Center
05:42PM 42.3911 -78.8683 290° West 372 428 36,000  Level Cleveland Center
05:43PM 42.4244 -78.9997 289° West 372 428 36,000  Level Cleveland Center
05:44PM 42.4553 -79.1367 287° West 377 434 36,000  Level Cleveland Center
05:45PM 42.4883 -79.2739 288° West 377 434 36,000  Level Cleveland Center
05:46PM 42.4981 -79.4203 275° West 387 445 36,000  Level Cleveland Center
05:47PM 42.5014 -79.5356 272° West 389 448 36,000  Level Cleveland Center
05:48PM 42.5131 -79.7072 275° West 384 442 36,000  Level Cleveland Center
05:49PM 42.5206 -79.8508 274° West 384 442 36,000  Level Cleveland Center
05:50PM 42.5272 -79.9606 275° West 384 442 36,000  Level Cleveland Center
05:51PM 42.5281 -80.1156 270° West 384 442 36,000  Level Cleveland Center
05:52PM 42.5347 -80.2592 274° West 379 436 36,000  Level Cleveland Center
05:53PM 42.5433 -80.4000 275° West 386 444 36,000  Level Cleveland Center
05:54PM 42.5497 -80.5494 273° West 392 451 36,000  Level Cleveland Center
05:55PM 42.5539 -80.6931 272° West 386 444 36,000  Level Cleveland Center
05:56PM 42.5600 -80.8425 273° West 386 444 36,000  Level Cleveland Center
05:57PM 42.5636 -80.9947 272° West 376 433 36,000  Level Cleveland Center
05:58PM 42.5692 -81.1442 273° West 389 448 36,000  Level Cleveland Center
05:59PM 42.5747 -81.2881 273° West 384 442 36,000  Level Cleveland Center
06:00PM 42.5800 -81.4347 273° West 384 442 36,000  Level Cleveland Center
06:01PM 42.6039 -81.5706 283° West 384 442 36,000  Level Cleveland Center
06:02PM 42.6275 -81.7147 283° West 384 442 36,000  Level Cleveland Center
06:03PM 42.6492 -81.8364 284° West 384 442 36,000  Level Cleveland Center
06:04PM 42.6747 -81.9753 284° West 384 442 36,000  Level Cleveland Center
06:05PM 42.6981 -82.1172 283° West 384 442 36,000  Level Cleveland Center
06:06PM 42.7231 -82.2592 284° West 384 442 36,000  Level Cleveland Center
06:07PM 42.7481 -82.4011 284° West 384 442 36,000  Level Cleveland Center
06:08PM 42.7708 -82.5433 282° West 384 442 36,000  Level Cleveland Center
06:09PM 42.7953 -82.6856 283° West 384 442 36,000  Level Cleveland Center
06:10PM 42.8197 -82.8250 283° West 384 442 36,000  Level Cleveland Center
06:11PM 42.8419 -82.9675 282° West 384 442 36,000 -600 Level Cleveland Center
06:12PM 42.8639 -83.1156 281° West 394 453 34,900 -1,200 Descending Cleveland Center
06:13PM 42.8878 -83.2583 283° West 394 453 33,600 -1,320 Descending Cleveland Center
06:14PM 42.9111 -83.4067 282° West 394 453 32,300 -840 Descending Cleveland Center
06:15PM 42.9367 -83.5581 283° West 399 459 32,000 -180 Descending Cleveland Center
06:16PM 42.9597 -83.7097 282° West 404 465 32,000  Level Cleveland Center
06:17PM 42.9553 -83.8683 268° West 409 471 32,000  Level Cleveland Center
06:18PM 42.9381 -84.0292 262° West 420 483 32,000  Level Cleveland Center
06:19PM 42.9250 -84.1872 264° West 425 489 32,000  Level Cleveland Center
06:20PM 42.9069 -84.3564 262° West 425 489 32,000  Level Cleveland Center
06:21PM 42.8817 -84.5983 262° West 421 484 32,000  Level Chicago Center
06:22PM 42.8658 -84.7553 262° West 418 481 32,000  Level Chicago Center
06:23PM 42.8503 -84.9106 262° West 416 479 32,000  Level Chicago Center
06:24PM 42.8331 -85.0672 262° West 417 480 32,000  Level Chicago Center
06:25PM 42.8167 -85.2236 262° West 416 479 32,000  Level Chicago Center
06:26PM 42.7989 -85.3811 261° West 421 484 32,000  Level Chicago Center
06:28PM 42.7742 -85.5681 260° West 419 482 32,000 -120 Level Chicago Center
06:29PM 42.7456 -85.7253 256° West 424 488 31,800 -1,800 Descending Chicago Center
06:30PM 42.7169 -85.8811 256° West 422 486 28,300 -3,900 Descending Chicago Center
06:31PM 42.6886 -86.0392 256° West 426 490 23,800 -3,780 Descending Chicago Center
06:32PM 42.6594 -86.1983 256° West 431 496 20,500 -1,860 Descending Chicago Center
06:33PM 42.6308 -86.3517 256° West 420 483 20,000 -900 Descending Chicago Center
06:34PM 42.6044 -86.4925 256° West 390 449 18,700 -1,860 Descending Chicago Center
06:35PM 42.5792 -86.6233 255° West 363 418 16,200 -2,340 Descending Chicago Center
06:36PM 42.5486 -86.7739 255° West 347 399 13,900 -1,860 Descending Chicago Center
06:37PM 42.5156 -86.8914 249° West 338 389 12,400 -1,560 Descending Chicago Center
06:38PM 42.4844 -87.0064 250° West 328 377 10,700 -1,200 Descending Chicago Center
06:39PM 42.4525 -87.1200 249° West 322 371 10,000 -360 Descending Chicago Center
06:40PM 42.4197 -87.2400 250° West 340 391 10,000  Level Chicago Center
06:41PM 42.3869 -87.3644 250° West 351 404 10,000  Level Chicago Center
06:42PM 42.3497 -87.4972 249° West 353 406 10,000  Level Chicago Center
06:43PM 42.2700 -87.6092 226° Southwest 362 417 10,000  Level Chicago Center
06:44PM 42.1922 -87.6903 218° Southwest 357 411 10,000 -540 Level Chicago Center
06:45PM 42.1256 -87.7522 215° Southwest 294 338 9,000 -1,260 Descending Chicago Center
06:46PM 42.0833 -87.7667 194° South 290 334 8,100 -1,380 Descending Chicago TRACON
06:47PM 42.0000 -87.8000 197° South 286 329 7,000 -600 Descending Chicago TRACON
06:48PM 41.9500 -87.8333 206° Southwest 253 291 7,000 -600 Level Chicago TRACON
06:49PM 41.8833 -87.8833 209° Southwest 239 275 5,900 -1,200 Descending Chicago TRACON
06:49PM 41.8511 -87.9058 207° Southwest 235 270 5,100 -1,080 Descending Chicago Center
06:50PM 41.8058 -87.9636 224° Southwest 237 273 4,100 -780 Descending Chicago Center
06:51PM 41.8417 -88.0031 321° Northwest 217 250 3,600 -780 Descending Chicago Center
06:52PM 41.8864 -87.9806 21° North 188 216 2,600 -1,020 Descending Chicago Center
06:53PM 41.9244 -87.9353 42° Northeast 162 186 1,500 -780 Descending Chicago Center
06:54PM 41.9458 -87.9089 43° Northeast 144 166 1,100 -420 Descending Chicago Center